createdAt,value
2019-03-13T00:00:32.234Z,83.70
2019-03-13T00:01:36.312Z,83.80
2019-03-13T00:02:46.451Z,84.30
2019-03-13T00:03:56.980Z,83.80
2019-03-13T00:05:07.052Z,83.80
2019-03-13T00:06:20.986Z,83.70
2019-03-13T00:07:28.311Z,83.60
2019-03-13T00:08:35.715Z,83.70
2019-03-13T00:09:44.260Z,83.80
2019-03-13T00:10:54.604Z,83.80
2019-03-13T00:12:00.758Z,83.80
2019-03-13T00:13:09.186Z,84.00
2019-03-13T00:14:15.167Z,84.00
2019-03-13T00:15:20.526Z,83.80
2019-03-13T00:16:26.870Z,83.80
2019-03-13T00:17:41.991Z,83.90
2019-03-13T00:18:49.104Z,83.80
2019-03-13T00:20:00.520Z,83.80
2019-03-13T00:21:07.006Z,83.90
2019-03-13T00:22:17.176Z,84.00
2019-03-13T00:23:30.393Z,84.00
2019-03-13T00:24:35.626Z,83.80
2019-03-13T00:25:41.602Z,83.80
2019-03-13T00:26:50.198Z,83.80
2019-03-13T00:28:02.164Z,83.00
2019-03-13T00:29:17.657Z,83.60
2019-03-13T00:30:18.806Z,83.60
2019-03-13T00:31:24.822Z,83.60
2019-03-13T00:32:34.595Z,83.70
2019-03-13T00:33:40.674Z,83.60
2019-03-13T00:34:46.454Z,83.60
2019-03-13T00:35:55.139Z,83.50
2019-03-13T00:37:04.676Z,83.60
2019-03-13T00:38:33.851Z,83.50
2019-03-13T00:39:37.047Z,83.60
2019-03-13T00:40:42.991Z,83.70
2019-03-13T00:41:47.183Z,83.70
2019-03-13T00:42:54.454Z,83.60
2019-03-13T00:43:58.767Z,83.60
2019-03-13T00:45:03.126Z,83.70
2019-03-13T00:46:08.124Z,83.70
2019-03-13T00:47:12.420Z,83.70
2019-03-13T00:48:20.420Z,83.70
2019-03-13T00:50:38.374Z,83.80
2019-03-13T00:51:50.446Z,83.80
2019-03-13T00:53:00.183Z,84.50
2019-03-13T00:54:11.236Z,83.80
2019-03-13T00:55:15.676Z,83.90
2019-03-13T00:56:25.601Z,83.60
2019-03-13T00:57:34.330Z,83.70
2019-03-13T00:58:45.776Z,83.80
2019-03-13T00:59:53.183Z,84.00
2019-03-13T01:01:00.232Z,83.90
2019-03-13T01:02:11.141Z,83.70
2019-03-13T01:03:26.396Z,83.70
2019-03-13T01:04:32.217Z,83.70
2019-03-13T01:05:38.294Z,83.70
2019-03-13T01:06:44.462Z,83.80
2019-03-13T01:07:48.860Z,84.80
2019-03-13T01:08:54.208Z,84.00
2019-03-13T01:10:00.163Z,84.10
2019-03-13T01:11:06.276Z,84.20
2019-03-13T01:12:12.346Z,84.40
2019-03-13T01:13:21.261Z,84.40
2019-03-13T01:14:26.492Z,84.40
2019-03-13T01:15:37.977Z,84.50
2019-03-13T01:16:42.380Z,84.40
2019-03-13T01:17:46.876Z,84.30
2019-03-13T01:18:51.288Z,84.20
2019-03-13T01:19:55.688Z,84.10
2019-03-13T01:21:06.210Z,84.20
2019-03-13T01:22:12.014Z,84.10
2019-03-13T01:23:18.008Z,84.00
2019-03-13T01:24:22.262Z,84.00
2019-03-13T01:25:26.524Z,84.10
2019-03-13T01:26:37.503Z,84.00
2019-03-13T01:27:41.662Z,83.80
2019-03-13T01:28:49.835Z,83.90
2019-03-13T01:29:53.472Z,83.80
2019-03-13T01:31:19.307Z,84.00
2019-03-13T01:32:32.567Z,84.00
2019-03-13T01:33:36.893Z,83.90
2019-03-13T01:34:44.340Z,84.00
2019-03-13T01:35:51.379Z,83.80
2019-03-13T01:36:55.815Z,83.70
2019-03-13T01:38:02.858Z,83.80
2019-03-13T01:39:07.610Z,83.70
2019-03-13T01:40:12.616Z,83.60
2019-03-13T01:41:19.391Z,83.60
2019-03-13T01:42:23.911Z,83.60
2019-03-13T01:43:29.901Z,83.70
2019-03-13T01:44:35.981Z,83.70
2019-03-13T01:45:41.525Z,83.70
2019-03-13T01:46:47.257Z,83.60
2019-03-13T01:47:54.820Z,83.60
2019-03-13T01:49:00.462Z,83.70
2019-03-13T01:50:09.199Z,83.70
2019-03-13T01:51:17.385Z,83.60
2019-03-13T01:52:23.593Z,83.50
2019-03-13T01:53:31.425Z,83.40
2019-03-13T01:54:35.444Z,83.60
2019-03-13T01:55:41.458Z,83.50
2019-03-13T01:56:47.354Z,83.60
2019-03-13T01:57:53.187Z,83.60
2019-03-13T01:59:00.236Z,83.50
2019-03-13T02:00:14.125Z,83.60
2019-03-13T02:01:22.109Z,83.50
2019-03-13T02:02:30.891Z,83.50
2019-03-13T02:03:36.316Z,83.60
2019-03-13T02:04:44.716Z,84.40
2019-03-13T02:05:49.477Z,83.70
2019-03-13T02:06:56.945Z,83.70
2019-03-13T02:08:01.426Z,83.80
2019-03-13T02:09:09.407Z,84.00
2019-03-13T02:10:13.979Z,83.90
2019-03-13T02:11:18.337Z,83.70
2019-03-13T02:12:24.320Z,83.70
2019-03-13T02:13:32.427Z,83.80
2019-03-13T02:14:39.382Z,83.90
2019-03-13T02:15:44.876Z,83.80
2019-03-13T02:16:50.478Z,83.90
2019-03-13T02:17:55.844Z,83.80
2019-03-13T02:19:04.276Z,83.80
2019-03-13T02:20:12.719Z,84.10
2019-03-13T02:21:17.074Z,83.90
2019-03-13T02:22:22.975Z,83.90
2019-03-13T02:23:33.897Z,83.70
2019-03-13T02:24:33.495Z,83.70
2019-03-13T02:25:38.916Z,83.80
2019-03-13T02:26:44.393Z,83.80
2019-03-13T02:27:50.351Z,83.40
2019-03-13T02:28:56.049Z,83.60
2019-03-13T02:30:00.835Z,83.40
2019-03-13T02:31:08.539Z,83.40
2019-03-13T02:32:14.402Z,83.50
2019-03-13T02:33:18.702Z,83.50
2019-03-13T02:34:23.112Z,83.70
2019-03-13T02:35:28.499Z,83.30
2019-03-13T02:36:38.555Z,83.30
2019-03-13T02:37:46.482Z,83.30
2019-03-13T02:39:00.023Z,83.20
2019-03-13T02:40:04.518Z,83.10
2019-03-13T02:41:14.097Z,83.10
2019-03-13T02:42:18.937Z,83.00
2019-03-13T02:43:23.414Z,82.90
2019-03-13T02:44:34.744Z,82.90
2019-03-13T02:45:43.623Z,83.00
2019-03-13T02:46:48.927Z,83.10
2019-03-13T02:47:57.388Z,83.10
2019-03-13T02:49:07.800Z,82.90
2019-03-13T02:50:19.088Z,83.10
2019-03-13T02:51:23.546Z,83.00
2019-03-13T02:52:31.259Z,82.80
2019-03-13T02:53:43.126Z,82.80
2019-03-13T02:54:48.779Z,82.70
2019-03-13T02:55:56.114Z,82.80
2019-03-13T02:57:02.131Z,82.80
2019-03-13T02:58:06.539Z,82.70
2019-03-13T02:59:23.379Z,82.60
2019-03-13T03:00:24.582Z,82.60
2019-03-13T03:01:30.475Z,82.70
2019-03-13T03:02:36.510Z,82.70
2019-03-13T03:03:45.792Z,82.60
2019-03-13T03:04:58.616Z,82.40
2019-03-13T03:06:07.016Z,82.20
2019-03-13T03:07:13.472Z,82.30
2019-03-13T03:08:23.669Z,81.80
2019-03-13T03:09:34.765Z,81.60
2019-03-13T03:10:38.717Z,81.40
2019-03-13T03:11:43.052Z,81.30
2019-03-13T03:12:48.674Z,81.30
2019-03-13T03:13:54.228Z,81.50
2019-03-13T03:15:07.524Z,81.60
2019-03-13T03:16:14.254Z,81.30
2019-03-13T03:17:21.010Z,81.30
2019-03-13T03:18:26.957Z,81.30
2019-03-13T03:19:32.722Z,81.30
2019-03-13T03:20:38.426Z,81.20
2019-03-13T03:21:42.693Z,81.20
2019-03-13T03:22:51.855Z,81.00
2019-03-13T03:23:56.155Z,81.00
2019-03-13T03:25:00.602Z,80.90
2019-03-13T03:26:09.280Z,80.90
2019-03-13T03:27:12.601Z,80.70
2019-03-13T03:28:18.522Z,80.60
2019-03-13T03:29:22.765Z,80.40
2019-03-13T03:30:28.332Z,80.20
2019-03-13T03:31:34.444Z,80.10
2019-03-13T03:32:38.661Z,79.90
2019-03-13T03:33:47.287Z,79.90
2019-03-13T03:35:00.996Z,79.80
2019-03-13T03:36:12.065Z,79.80
2019-03-13T03:37:13.639Z,79.60
2019-03-13T03:38:19.940Z,79.50
2019-03-13T03:39:30.101Z,79.50
2019-03-13T03:40:34.764Z,79.50
2019-03-13T03:41:41.736Z,79.90
2019-03-13T03:42:46.210Z,79.80
2019-03-13T03:43:55.472Z,79.80
2019-03-13T03:44:57.659Z,79.90
2019-03-13T03:46:04.321Z,80.00
2019-03-13T03:47:12.466Z,80.00
2019-03-13T03:48:18.192Z,80.10
2019-03-13T03:49:23.661Z,80.00
2019-03-13T03:50:28.087Z,80.20
2019-03-13T03:51:33.915Z,80.10
2019-03-13T03:52:41.228Z,80.90
2019-03-13T03:53:48.372Z,80.00
2019-03-13T03:54:56.642Z,80.00
2019-03-13T03:56:04.960Z,80.00
2019-03-13T03:57:09.230Z,79.90
2019-03-13T03:58:13.594Z,79.80
2019-03-13T03:59:23.336Z,79.80
2019-03-13T04:00:31.813Z,79.70
2019-03-13T04:01:38.915Z,79.80
2019-03-13T04:02:44.391Z,79.90
2019-03-13T04:03:50.170Z,80.00
2019-03-13T04:05:03.320Z,80.00
2019-03-13T04:06:07.678Z,79.90
2019-03-13T04:07:15.222Z,79.90
2019-03-13T04:08:19.449Z,79.90
2019-03-13T04:09:27.747Z,80.00
2019-03-13T04:10:36.320Z,79.70
2019-03-13T04:11:43.432Z,79.60
2019-03-13T04:12:49.371Z,79.30
2019-03-13T04:13:55.338Z,79.00
2019-03-13T04:15:01.394Z,78.60
2019-03-13T04:16:08.548Z,78.20
2019-03-13T04:17:14.243Z,78.00
2019-03-13T04:18:24.491Z,78.00
2019-03-13T04:19:44.279Z,77.90
2019-03-13T04:20:48.282Z,77.90
2019-03-13T04:21:52.250Z,77.70
2019-03-13T04:23:04.424Z,77.20
2019-03-13T04:24:04.070Z,77.00
2019-03-13T04:25:11.223Z,76.80
2019-03-13T04:26:22.868Z,76.50
2019-03-13T04:27:35.897Z,76.50
2019-03-13T04:28:43.202Z,76.00
2019-03-13T04:29:52.083Z,75.70
2019-03-13T04:30:59.294Z,75.70
2019-03-13T04:32:10.624Z,75.70
2019-03-13T04:33:28.220Z,75.40
2019-03-13T04:34:37.965Z,75.10
2019-03-13T04:35:46.724Z,75.20
2019-03-13T04:36:53.000Z,75.20
2019-03-13T04:37:59.835Z,75.20
2019-03-13T04:39:05.381Z,74.70
2019-03-13T04:40:11.626Z,74.80
2019-03-13T04:41:20.438Z,74.80
2019-03-13T04:42:26.720Z,74.60
2019-03-13T04:43:35.394Z,74.70
2019-03-13T04:44:44.447Z,74.50
2019-03-13T04:46:04.234Z,74.40
2019-03-13T04:47:05.156Z,74.20
2019-03-13T04:48:33.326Z,74.20
2019-03-13T04:49:28.848Z,74.30
2019-03-13T04:50:36.123Z,73.90
2019-03-13T04:51:43.294Z,73.90
2019-03-13T04:52:48.870Z,74.00
2019-03-13T04:53:55.670Z,73.90
2019-03-13T04:55:06.876Z,73.70
2019-03-13T04:56:05.871Z,73.90
2019-03-13T04:57:11.524Z,73.80
2019-03-13T04:58:15.770Z,73.60
2019-03-13T04:59:22.595Z,73.80
2019-03-13T05:00:30.003Z,74.30
2019-03-13T05:01:36.676Z,73.00
2019-03-13T05:02:44.786Z,72.90
2019-03-13T05:03:48.508Z,72.70
2019-03-13T05:04:53.852Z,72.70
2019-03-13T05:05:58.206Z,72.70
2019-03-13T05:07:04.127Z,72.80
2019-03-13T05:08:08.948Z,72.70
2019-03-13T05:09:17.009Z,72.40
2019-03-13T05:10:21.292Z,72.00
2019-03-13T05:11:27.372Z,72.00
2019-03-13T05:12:31.854Z,71.80
2019-03-13T05:13:37.269Z,71.50
2019-03-13T05:14:44.602Z,71.30
2019-03-13T05:15:50.528Z,70.80
2019-03-13T05:16:58.662Z,70.50
2019-03-13T05:18:05.431Z,70.40
2019-03-13T05:19:15.917Z,70.00
2019-03-13T05:20:23.821Z,70.00
2019-03-13T05:21:30.817Z,69.80
2019-03-13T05:22:38.160Z,69.30
2019-03-13T05:23:44.035Z,69.00
2019-03-13T05:24:49.909Z,69.00
2019-03-13T05:25:55.805Z,69.10
2019-03-13T05:27:01.973Z,69.30
2019-03-13T05:28:06.329Z,69.00
2019-03-13T05:29:16.520Z,68.80
2019-03-13T05:30:22.189Z,68.10
2019-03-13T05:31:31.070Z,68.20
2019-03-13T05:32:39.719Z,68.00
2019-03-13T05:33:46.912Z,67.90
2019-03-13T05:34:55.177Z,67.90
2019-03-13T05:36:01.159Z,68.00
2019-03-13T05:37:06.983Z,68.10
2019-03-13T05:38:11.374Z,67.80
2019-03-13T05:39:18.336Z,67.90
2019-03-13T05:40:26.150Z,67.50
2019-03-13T05:41:36.118Z,67.50
2019-03-13T05:42:42.093Z,66.80
2019-03-13T05:46:05.763Z,66.60
2019-03-13T05:46:24.575Z,66.40
2019-03-13T05:47:36.071Z,66.40
2019-03-13T05:48:41.855Z,67.00
2019-03-13T05:49:49.218Z,66.20
2019-03-13T05:50:53.573Z,66.20
2019-03-13T05:51:59.628Z,65.90
2019-03-13T05:53:07.293Z,65.30
2019-03-13T05:54:15.964Z,64.90
2019-03-13T05:55:20.300Z,64.60
2019-03-13T05:56:26.966Z,64.50
2019-03-13T05:57:33.645Z,64.30
2019-03-13T05:58:41.492Z,64.20
2019-03-13T05:59:48.406Z,63.80
2019-03-13T06:00:55.566Z,63.40
2019-03-13T06:02:02.273Z,62.50
2019-03-13T06:03:07.191Z,62.30
2019-03-13T06:04:14.685Z,62.20
2019-03-13T06:05:18.938Z,62.40
2019-03-13T06:06:23.239Z,62.50
2019-03-13T06:07:27.543Z,62.50
2019-03-13T06:08:50.054Z,61.90
2019-03-13T06:09:51.177Z,61.80
2019-03-13T06:10:57.081Z,62.00
2019-03-13T06:12:03.940Z,62.00
2019-03-13T06:13:24.683Z,61.90
2019-03-13T06:14:29.046Z,61.80
2019-03-13T06:15:35.815Z,61.70
2019-03-13T06:16:41.638Z,62.00
2019-03-13T06:17:48.662Z,62.20
2019-03-13T06:18:58.281Z,62.10
2019-03-13T06:20:10.781Z,61.80
2019-03-13T06:21:15.639Z,61.30
2019-03-13T06:22:22.822Z,61.30
2019-03-13T06:23:30.322Z,60.00
2019-03-13T06:24:38.998Z,59.80
2019-03-13T06:25:55.632Z,60.20
2019-03-13T06:27:05.477Z,60.10
2019-03-13T06:29:40.352Z,59.70
2019-03-13T06:30:47.187Z,59.90
2019-03-13T06:32:02.175Z,59.80
2019-03-13T06:33:10.582Z,60.00
2019-03-13T06:34:23.283Z,59.90
2019-03-13T06:35:27.747Z,59.50
2019-03-13T06:36:36.059Z,59.30
2019-03-13T06:37:40.513Z,59.40
2019-03-13T06:38:51.501Z,59.50
2019-03-13T06:40:05.053Z,59.70
2019-03-13T06:41:14.103Z,59.50
2019-03-13T06:42:21.421Z,59.20
2019-03-13T06:43:32.638Z,58.80
2019-03-13T06:44:36.891Z,58.90
2019-03-13T06:45:43.836Z,59.10
2019-03-13T06:46:55.995Z,59.20
2019-03-13T06:47:59.297Z,59.00
2019-03-13T06:49:07.477Z,59.10
2019-03-13T06:50:21.675Z,58.80
2019-03-13T06:51:27.113Z,58.10
2019-03-13T06:52:33.395Z,58.40
2019-03-13T06:53:40.322Z,58.60
2019-03-13T06:54:49.891Z,58.40
2019-03-13T06:55:56.456Z,58.30
2019-03-13T06:57:12.568Z,57.70
2019-03-13T06:58:19.211Z,58.10
2019-03-13T06:59:25.541Z,58.10
2019-03-13T07:00:49.390Z,57.70
2019-03-13T07:01:58.502Z,57.50
2019-03-13T07:03:09.854Z,57.40
2019-03-13T07:04:33.245Z,57.00
2019-03-13T07:05:51.200Z,56.10
2019-03-13T07:06:57.015Z,56.20
2019-03-13T07:08:11.793Z,55.40
2019-03-13T07:09:19.250Z,55.00
2019-03-13T07:10:27.676Z,55.30
2019-03-13T07:11:33.879Z,55.50
2019-03-13T07:12:50.000Z,55.30
2019-03-13T07:14:00.285Z,55.00
2019-03-13T07:15:15.305Z,54.70
2019-03-13T07:16:23.030Z,54.70
2019-03-13T07:17:31.387Z,54.50
2019-03-13T07:19:07.881Z,54.30
2019-03-13T07:19:54.779Z,54.20
2019-03-13T07:21:10.876Z,53.70
2019-03-13T07:22:30.363Z,53.50
2019-03-13T07:23:40.373Z,53.80
2019-03-13T07:24:48.379Z,53.40
2019-03-13T07:25:58.921Z,53.40
2019-03-13T07:27:07.636Z,53.50
2019-03-13T07:28:25.637Z,54.00
2019-03-13T07:29:46.155Z,53.60
2019-03-13T07:31:00.639Z,54.30
2019-03-13T07:32:14.870Z,53.20
2019-03-13T07:33:37.990Z,53.40
2019-03-13T07:34:56.497Z,53.70
2019-03-13T07:36:24.937Z,53.40
2019-03-13T07:37:35.656Z,53.30
2019-03-13T07:38:50.513Z,53.50
2019-03-13T07:40:25.557Z,53.20
2019-03-13T07:41:14.137Z,52.70
2019-03-13T07:44:29.355Z,52.70
2019-03-13T07:45:39.620Z,52.30
2019-03-13T07:46:54.383Z,52.40
2019-03-13T07:48:09.904Z,52.60
2019-03-13T07:49:49.223Z,52.70
2019-03-13T07:51:14.267Z,52.70
2019-03-13T07:52:24.402Z,52.80
2019-03-13T07:53:34.646Z,53.30
2019-03-13T07:54:49.301Z,53.20
2019-03-13T07:56:12.164Z,52.50
2019-03-13T07:57:25.327Z,52.50
2019-03-13T07:58:49.265Z,52.30
2019-03-13T08:00:04.554Z,52.40
2019-03-13T08:01:19.656Z,52.40
2019-03-13T08:02:34.514Z,52.30
2019-03-13T08:03:43.314Z,52.30
2019-03-13T08:04:52.023Z,52.00
2019-03-13T08:06:14.731Z,52.10
2019-03-13T08:07:34.577Z,52.50
2019-03-13T08:08:52.855Z,52.30
2019-03-13T08:10:27.531Z,52.10
2019-03-13T08:13:31.787Z,52.50
2019-03-13T08:14:35.622Z,52.30
2019-03-13T08:15:55.945Z,51.70
2019-03-13T08:17:05.526Z,52.00
2019-03-13T08:18:23.557Z,51.90
2019-03-13T08:20:02.055Z,52.30
2019-03-13T08:21:36.501Z,51.90
2019-03-13T08:23:04.501Z,52.10
2019-03-13T08:24:16.095Z,51.50
2019-03-13T08:25:39.742Z,51.60
2019-03-13T08:27:05.204Z,51.60
2019-03-13T08:28:14.863Z,51.90
2019-03-13T08:29:22.270Z,51.50
2019-03-13T08:30:44.943Z,51.60
2019-03-13T08:32:08.329Z,51.20
2019-03-13T08:35:19.926Z,51.50
2019-03-13T08:36:12.617Z,51.20
2019-03-13T08:39:29.814Z,50.80
2019-03-13T08:40:40.158Z,50.40
2019-03-13T08:41:58.708Z,51.20
2019-03-13T08:43:22.747Z,50.50
2019-03-13T08:44:49.071Z,50.50
2019-03-13T08:45:58.295Z,50.20
2019-03-13T08:47:22.595Z,50.20
2019-03-13T08:48:45.090Z,49.90
2019-03-13T08:49:59.044Z,50.20
2019-03-13T08:51:19.319Z,50.80
2019-03-13T08:52:29.082Z,50.80
2019-03-13T08:54:17.425Z,50.30
2019-03-13T08:55:21.377Z,50.80
2019-03-13T08:56:30.023Z,50.30
2019-03-13T08:57:43.202Z,50.30
2019-03-13T08:58:58.044Z,50.00
2019-03-13T09:00:05.238Z,49.80
2019-03-13T09:01:17.159Z,49.80
2019-03-13T09:02:42.104Z,49.70
2019-03-13T09:03:52.096Z,49.40
2019-03-13T09:05:08.479Z,49.00
2019-03-13T09:06:14.434Z,49.60
2019-03-13T09:07:23.095Z,49.30
2019-03-13T09:08:46.975Z,49.40
2019-03-13T09:09:52.933Z,49.40
2019-03-13T09:10:58.955Z,49.80
2019-03-13T09:12:04.813Z,49.20
2019-03-13T09:13:10.558Z,49.00
2019-03-13T09:14:31.731Z,49.30
2019-03-13T09:15:41.364Z,49.20
2019-03-13T09:16:53.329Z,48.90
2019-03-13T09:18:10.916Z,49.10
2019-03-13T09:19:28.457Z,49.40
2019-03-13T09:20:50.484Z,49.60
2019-03-13T09:22:02.325Z,49.70
2019-03-13T09:23:18.784Z,50.00
2019-03-13T09:24:28.979Z,50.40
2019-03-13T09:25:44.940Z,50.60
2019-03-13T09:26:53.857Z,51.10
2019-03-13T09:28:02.339Z,51.50
2019-03-13T09:29:49.586Z,51.80
2019-03-13T09:31:17.756Z,52.40
2019-03-13T09:32:55.033Z,53.70
2019-03-13T09:34:19.843Z,55.10
2019-03-13T09:35:34.178Z,56.30
2019-03-13T09:37:03.764Z,57.20
2019-03-13T09:38:13.397Z,57.50
2019-03-13T09:39:37.146Z,57.60
2019-03-13T09:41:05.543Z,57.60
2019-03-13T09:42:22.265Z,57.40
2019-03-13T09:45:51.214Z,57.30
2019-03-13T09:47:09.403Z,56.40
2019-03-13T09:48:25.439Z,55.60
2019-03-13T09:49:52.602Z,55.40
2019-03-13T09:51:14.626Z,54.70
2019-03-13T09:52:37.914Z,53.40
2019-03-13T09:54:45.782Z,52.60
2019-03-13T09:56:18.242Z,52.40
2019-03-13T10:00:29.421Z,51.20
2019-03-13T10:01:58.516Z,50.40
2019-03-13T10:04:00.881Z,50.50
2019-03-13T10:05:08.360Z,50.40
2019-03-13T10:06:22.930Z,50.60
2019-03-13T10:07:46.294Z,50.60
2019-03-13T10:10:37.605Z,50.00
2019-03-13T10:12:09.158Z,50.10
2019-03-13T10:13:31.684Z,50.30
2019-03-13T10:15:17.186Z,50.80
2019-03-13T10:18:24.547Z,51.30
2019-03-13T10:20:05.159Z,51.80
2019-03-13T10:21:17.302Z,52.30
2019-03-13T10:24:22.620Z,53.00
2019-03-13T10:25:37.991Z,53.60
2019-03-13T10:27:18.763Z,54.20
2019-03-13T10:28:22.623Z,54.80
2019-03-13T10:31:17.050Z,55.90
2019-03-13T10:32:31.407Z,56.00
2019-03-13T10:33:58.196Z,56.40
2019-03-13T10:35:19.441Z,56.80
2019-03-13T10:37:58.287Z,59.10
2019-03-13T10:39:19.628Z,59.40
2019-03-13T10:40:53.965Z,60.50
2019-03-13T10:42:17.028Z,61.10
2019-03-13T10:45:36.836Z,62.20
2019-03-13T10:46:57.189Z,63.40
2019-03-13T10:48:17.438Z,64.20
2019-03-13T10:51:13.952Z,65.10
2019-03-13T10:52:37.561Z,65.60
2019-03-13T10:58:56.501Z,67.60
2019-03-13T11:00:20.595Z,68.00
2019-03-13T11:01:44.771Z,68.40
2019-03-13T11:03:11.644Z,68.20
2019-03-13T11:04:28.944Z,68.20
2019-03-13T11:05:46.085Z,68.20
2019-03-13T11:07:28.524Z,68.50
2019-03-13T11:09:03.372Z,68.50
2019-03-13T11:10:58.333Z,68.70
2019-03-13T11:11:24.340Z,68.70
2019-03-13T11:12:50.297Z,68.90
2019-03-13T11:16:05.682Z,69.30
2019-03-13T11:17:22.416Z,69.20
2019-03-13T11:18:57.960Z,69.50
2019-03-13T11:20:21.206Z,69.60
2019-03-13T11:21:27.456Z,69.80
2019-03-13T11:22:37.210Z,69.70
2019-03-13T11:24:04.949Z,69.60
2019-03-13T11:25:39.794Z,69.40
2019-03-13T11:27:22.956Z,69.30
2019-03-13T11:28:42.958Z,69.00
2019-03-13T11:29:57.703Z,69.10
2019-03-13T11:31:10.125Z,69.20
2019-03-13T11:32:45.630Z,69.50
2019-03-13T11:34:01.907Z,69.70
2019-03-13T11:35:18.018Z,69.80
2019-03-13T11:36:40.818Z,69.90
2019-03-13T11:37:56.078Z,70.00
2019-03-13T11:39:04.414Z,69.70
2019-03-13T11:40:13.530Z,69.70
2019-03-13T11:41:19.900Z,70.00
2019-03-13T11:42:41.169Z,70.10
2019-03-13T11:43:53.189Z,70.10
2019-03-13T11:45:02.628Z,70.40
2019-03-13T11:46:22.258Z,70.50
2019-03-13T11:47:41.972Z,70.70
2019-03-13T11:49:00.716Z,70.60
2019-03-13T11:50:21.305Z,70.60
2019-03-13T11:51:38.843Z,70.40
2019-03-13T11:52:41.772Z,70.50
2019-03-13T11:54:10.803Z,70.60
2019-03-13T11:55:22.791Z,70.10
2019-03-13T11:56:49.713Z,70.40
2019-03-13T11:57:57.183Z,70.70
2019-03-13T11:59:05.913Z,70.90
2019-03-13T12:00:21.935Z,71.50
2019-03-13T12:01:50.257Z,71.60
2019-03-13T12:03:07.574Z,71.70
2019-03-13T12:04:15.370Z,71.80
2019-03-13T12:05:25.123Z,72.00
2019-03-13T12:06:32.585Z,72.20
2019-03-13T12:07:47.529Z,72.50
2019-03-13T12:09:09.703Z,71.70
2019-03-13T12:10:18.606Z,71.50
2019-03-13T12:11:31.410Z,71.60
2019-03-13T12:12:41.309Z,71.80
2019-03-13T12:13:59.174Z,72.00
2019-03-13T12:15:12.272Z,72.00
2019-03-13T12:16:25.172Z,72.30
2019-03-13T12:17:49.943Z,72.40
2019-03-13T12:19:03.467Z,72.60
2019-03-13T12:20:13.891Z,72.20
2019-03-13T12:21:28.615Z,72.30
2019-03-13T12:22:34.691Z,72.50
2019-03-13T12:23:41.708Z,72.60
2019-03-13T12:25:09.454Z,72.50
2019-03-13T12:26:28.752Z,72.60
2019-03-13T12:27:25.850Z,73.40
2019-03-13T12:28:41.937Z,72.30
2019-03-13T12:29:55.121Z,72.20
2019-03-13T12:31:01.828Z,72.00
2019-03-13T12:32:12.379Z,72.00
2019-03-13T12:33:41.447Z,71.80
2019-03-13T12:35:05.213Z,71.90
2019-03-13T12:36:11.771Z,72.00
2019-03-13T12:37:49.717Z,71.90
2019-03-13T12:39:11.424Z,72.00
2019-03-13T12:40:23.046Z,72.00
2019-03-13T12:41:40.483Z,71.90
2019-03-13T12:42:46.303Z,72.00
2019-03-13T12:43:56.927Z,71.90
2019-03-13T12:45:02.833Z,72.00
2019-03-13T12:46:12.164Z,72.00
2019-03-13T12:47:34.382Z,71.80
2019-03-13T12:48:54.632Z,71.70
2019-03-13T12:50:08.829Z,71.50
2019-03-13T12:51:34.617Z,71.20
2019-03-13T12:53:05.826Z,71.10
2019-03-13T12:54:11.406Z,71.10
2019-03-13T12:55:27.376Z,71.00
2019-03-13T12:56:54.016Z,70.90
2019-03-13T12:58:13.717Z,70.80
2019-03-13T12:59:30.381Z,70.80
2019-03-13T13:00:45.168Z,70.40
2019-03-13T13:01:59.975Z,70.30
2019-03-13T13:03:19.231Z,70.00
2019-03-13T13:04:39.664Z,69.60
2019-03-13T13:05:57.875Z,68.80
2019-03-13T13:07:13.520Z,67.70
2019-03-13T13:08:41.765Z,67.20
2019-03-13T13:10:00.391Z,66.70
2019-03-13T13:11:21.146Z,66.00
2019-03-13T13:12:44.167Z,65.60
2019-03-13T13:13:56.491Z,65.60
2019-03-13T13:15:05.918Z,65.30
2019-03-13T13:16:18.925Z,64.10
2019-03-13T13:17:27.023Z,63.70
2019-03-13T13:18:41.163Z,63.30
2019-03-13T13:20:53.905Z,62.20
2019-03-13T13:22:04.036Z,62.00
2019-03-13T13:23:19.184Z,61.60
2019-03-13T13:24:27.792Z,61.50
2019-03-13T13:25:36.137Z,61.10
2019-03-13T13:26:43.292Z,60.40
2019-03-13T13:28:02.007Z,59.90
2019-03-13T13:29:13.759Z,59.80
2019-03-13T13:30:21.173Z,59.60
2019-03-13T13:31:37.493Z,59.50
2019-03-13T13:32:43.415Z,59.40
2019-03-13T13:33:54.209Z,59.50
2019-03-13T13:35:01.640Z,59.40
2019-03-13T13:36:14.993Z,59.60
2019-03-13T13:37:21.082Z,58.40
2019-03-13T13:38:27.248Z,58.30
2019-03-13T13:39:36.989Z,58.20
2019-03-13T13:40:48.192Z,58.10
2019-03-13T13:42:05.211Z,58.90
2019-03-13T13:43:14.618Z,58.10
2019-03-13T13:44:23.030Z,57.90
2019-03-13T13:45:40.139Z,57.80
2019-03-13T13:46:49.060Z,57.50
2019-03-13T13:47:57.170Z,57.80
2019-03-13T13:49:08.324Z,56.90
2019-03-13T13:51:47.817Z,57.30
2019-03-13T13:52:57.097Z,57.70
2019-03-13T13:54:16.360Z,57.90
2019-03-13T13:55:30.900Z,58.30
2019-03-13T13:56:40.271Z,58.70
2019-03-13T13:57:50.635Z,58.90
2019-03-13T13:58:59.077Z,58.60
2019-03-13T14:00:17.807Z,58.40
2019-03-13T14:01:15.981Z,58.60
2019-03-13T14:02:33.226Z,59.20
2019-03-13T14:03:50.347Z,59.30
2019-03-13T14:06:27.446Z,59.80
2019-03-13T14:07:34.375Z,59.50
2019-03-13T14:08:43.233Z,58.00
2019-03-13T14:10:12.591Z,58.00
2019-03-13T14:11:25.848Z,58.30
2019-03-13T14:12:37.776Z,58.20
2019-03-13T14:13:50.625Z,57.90
2019-03-13T14:15:10.333Z,57.50
2019-03-13T14:16:31.233Z,57.30
2019-03-13T14:17:39.105Z,56.70
2019-03-13T14:19:03.197Z,56.00
2019-03-13T14:20:30.651Z,56.00
2019-03-13T14:21:33.484Z,55.90
2019-03-13T14:22:46.598Z,55.90
2019-03-13T14:23:55.709Z,55.70
2019-03-13T14:25:17.957Z,55.50
2019-03-13T14:26:26.361Z,54.40
2019-03-13T14:27:30.815Z,53.70
2019-03-13T14:28:44.091Z,53.70
2019-03-13T14:29:58.332Z,53.80
2019-03-13T14:31:27.520Z,53.70
2019-03-13T14:32:49.102Z,53.70
2019-03-13T14:33:45.343Z,53.40
2019-03-13T14:34:56.179Z,53.20
2019-03-13T14:36:04.445Z,53.40
2019-03-13T14:37:16.344Z,53.70
2019-03-13T14:38:18.724Z,53.40
2019-03-13T14:39:25.685Z,53.50
2019-03-13T14:40:33.449Z,53.80
2019-03-13T14:41:50.347Z,54.00
2019-03-13T14:43:03.594Z,53.50
2019-03-13T14:44:11.767Z,53.50
2019-03-13T14:45:27.306Z,53.60
2019-03-13T14:46:38.507Z,53.70
2019-03-13T14:47:56.101Z,54.10
2019-03-13T14:49:05.683Z,54.10
2019-03-13T14:50:23.083Z,54.20
2019-03-13T14:51:37.840Z,54.80
2019-03-13T14:52:49.611Z,54.90
2019-03-13T14:54:03.593Z,55.10
2019-03-13T14:58:38.779Z,55.70
2019-03-13T14:59:52.035Z,56.20
2019-03-13T15:00:59.529Z,56.30
2019-03-13T15:02:08.244Z,56.60
2019-03-13T15:03:16.230Z,56.80
2019-03-13T15:04:43.962Z,57.00
2019-03-13T15:07:41.837Z,57.70
2019-03-13T15:08:39.568Z,58.50
2019-03-13T15:09:57.044Z,57.70
2019-03-13T15:11:12.379Z,57.70
2019-03-13T15:12:27.595Z,58.00
2019-03-13T15:13:36.569Z,57.80
2019-03-13T15:14:47.788Z,57.30
2019-03-13T15:15:54.559Z,57.60
2019-03-13T15:17:05.365Z,57.80
2019-03-13T15:18:14.133Z,58.00
2019-03-13T15:19:28.569Z,58.80
2019-03-13T15:20:34.051Z,58.60
2019-03-13T15:21:47.281Z,58.50
2019-03-13T15:22:53.783Z,58.70
2019-03-13T15:24:25.490Z,58.50
2019-03-13T15:25:32.341Z,58.60
2019-03-13T15:26:35.641Z,58.70
2019-03-13T15:27:42.451Z,58.90
2019-03-13T15:29:55.955Z,59.00
2019-03-13T15:30:08.991Z,59.10
2019-03-13T15:33:15.001Z,58.90
2019-03-13T15:34:36.669Z,58.70
2019-03-13T15:36:05.578Z,58.40
2019-03-13T15:37:04.221Z,58.10
2019-03-13T15:38:12.372Z,57.90
2019-03-13T15:39:28.445Z,57.80
2019-03-13T15:40:44.737Z,57.30
2019-03-13T15:42:10.863Z,57.00
2019-03-13T15:43:21.017Z,57.00
2019-03-13T15:44:35.552Z,57.10
2019-03-13T15:45:56.487Z,57.10
2019-03-13T15:47:14.087Z,57.10
2019-03-13T15:48:42.395Z,57.10
2019-03-13T15:49:47.532Z,57.30
2019-03-13T15:51:01.160Z,57.30
2019-03-13T15:52:03.338Z,57.60
2019-03-13T15:55:07.926Z,58.60
2019-03-13T15:56:30.281Z,58.10
2019-03-13T15:57:51.305Z,58.40
2019-03-13T15:59:00.549Z,58.40
2019-03-13T16:00:27.157Z,58.70
2019-03-13T16:01:26.470Z,58.90
2019-03-13T16:02:47.775Z,59.10
2019-03-13T16:04:04.823Z,59.30
2019-03-13T16:05:37.327Z,59.50
2019-03-13T16:08:04.744Z,59.50
2019-03-13T16:09:16.393Z,59.60
2019-03-13T16:10:31.754Z,59.80
2019-03-13T16:11:38.870Z,59.80
2019-03-13T16:13:29.933Z,59.60
2019-03-13T16:14:16.301Z,59.80
2019-03-13T16:17:02.905Z,60.20
2019-03-13T16:18:14.232Z,60.30